Time;durP1;ratioP1;P1;durP2;ratioP2;P2;SDS_P1;SDS_P2;PMS_P1;PMS_P2;Temp;Humidity;BMP_temperature;BMP_pressure;BME280_temperature;BME280_humidity;BME280_pressure;Samples;Min_cycle;Max_cycle;Signal;HPM_P1;HPM_P2
2021/06/10 00:01:38;;;;;;;12.13;10.98;;;19.50;1.00;;;;;;5033591;28;20034;-85
2021/06/10 00:04:04;;;;;;;12.90;11.68;;;19.50;1.00;;;;;;5015539;28;20026;-86
2021/06/10 00:06:30;;;;;;;13.70;12.25;;;19.50;1.00;;;;;;5033082;28;20454;-86
2021/06/10 00:08:59;;;;;;;12.05;10.95;;;19.50;1.00;;;;;;5033585;28;20109;-85
2021/06/10 00:11:25;;;;;;;13.93;12.45;;;19.30;1.00;;;;;;5031965;28;20413;-85
2021/06/10 00:13:50;;;;;;;13.20;11.65;;;19.30;1.00;;;;;;5014901;28;20022;-86
2021/06/10 00:16:16;;;;;;;12.88;11.60;;;19.20;1.00;;;;;;5033303;28;20390;-85
2021/06/10 00:18:43;;;;;;;12.48;11.18;;;19.20;1.00;;;;;;5032581;28;20033;-86
2021/06/10 00:21:09;;;;;;;12.60;11.40;;;19.20;1.00;;;;;;5032402;28;20025;-85
2021/06/10 00:23:35;;;;;;;13.20;11.93;;;19.30;1.00;;;;;;5033201;28;20087;-85
2021/06/10 00:26:01;;;;;;;12.77;11.57;;;19.30;1.00;;;;;;5032550;28;20029;-85
2021/06/10 00:28:26;;;;;;;12.70;11.50;;;19.10;1.00;;;;;;5032674;28;20033;-86
2021/06/10 00:30:52;;;;;;;12.93;11.35;;;19.00;1.00;;;;;;5032379;28;20060;-85
2021/06/10 00:33:18;;;;;;;12.82;11.10;;;19.20;1.00;;;;;;5032488;28;20321;-86
2021/06/10 00:35:43;;;;;;;12.98;11.73;;;19.10;1.00;;;;;;5032744;28;20018;-86
2021/06/10 00:38:09;;;;;;;13.52;12.13;;;19.10;1.00;;;;;;5032335;28;20025;-85
2021/06/10 00:40:35;;;;;;;13.80;12.48;;;19.10;1.00;;;;;;5032230;28;20025;-85
2021/06/10 00:43:03;;;;;;;13.07;11.80;;;19.00;1.00;;;;;;5032128;28;20599;-84
2021/06/10 00:45:29;;;;;;;14.40;12.65;;;18.90;1.00;;;;;;5032149;28;20028;-85
2021/06/10 00:47:55;;;;;;;13.50;12.20;;;19.00;1.00;;;;;;5032334;28;20032;-85
2021/06/10 00:50:28;;;;;;;12.98;11.68;;;18.90;1.00;;;;;;5032069;28;20035;-85
2021/06/10 00:52:54;;;;;;;13.57;12.27;;;18.90;1.00;;;;;;5032357;28;20026;-85
2021/06/10 00:55:20;;;;;;;13.20;11.88;;;18.80;1.00;;;;;;5032234;28;20029;-85
2021/06/10 00:57:45;;;;;;;13.95;12.40;;;18.80;1.00;;;;;;5032188;28;20108;-85
2021/06/10 01:00:14;;;;;;;12.93;11.70;;;18.70;1.00;;;;;;5031801;28;20025;-85
2021/06/10 01:02:40;;;;;;;13.45;12.00;;;18.60;1.00;;;;;;5032062;28;20512;-85
2021/06/10 01:05:09;;;;;;;12.32;11.20;;;18.70;1.00;;;;;;5032205;28;20033;-86
2021/06/10 01:07:40;;;;;;;13.07;11.88;;;18.70;1.00;;;;;;5032686;28;20383;-85
2021/06/10 01:10:21;;;;;;;14.75;12.32;;;18.80;1.00;;;;;;5031052;28;20033;-85
2021/06/10 01:13:05;;;;;;;14.43;12.27;;;18.70;1.00;;;;;;5031674;28;20029;-85
2021/06/10 01:15:37;;;;;;;13.82;12.30;;;18.60;1.00;;;;;;5031648;28;20030;-85
2021/06/10 01:18:03;;;;;;;14.20;12.32;;;18.60;1.00;;;;;;5031879;28;20026;-85
2021/06/10 01:20:30;;;;;;;14.15;12.60;;;18.40;1.00;;;;;;5031460;28;20108;-85
2021/06/10 01:23:04;;;;;;;16.00;12.93;;;18.40;1.00;;;;;;5031813;28;20045;-85
2021/06/10 01:25:41;;;;;;;16.25;12.93;;;18.40;1.00;;;;;;5029973;28;20037;-85
2021/06/10 01:28:18;;;;;;;13.05;11.75;;;18.50;1.00;;;;;;5031480;28;20482;-85
2021/06/10 01:30:56;;;;;;;13.73;12.30;;;18.50;1.00;;;;;;5031406;28;20032;-85
2021/06/10 01:33:25;;;;;;;13.90;12.50;;;18.60;1.00;;;;;;5031546;28;20017;-85
2021/06/10 01:35:56;;;;;;;15.13;12.15;;;18.60;1.00;;;;;;5031469;28;20017;-85
2021/06/10 01:38:24;;;;;;;14.05;12.70;;;18.50;1.00;;;;;;5031203;28;20033;-85
2021/06/10 01:40:51;;;;;;;14.30;12.90;;;18.40;1.00;;;;;;5031044;28;20112;-84
2021/06/10 01:43:18;;;;;;;15.02;13.63;;;18.40;1.00;;;;;;5031373;28;20033;-85
2021/06/10 01:45:48;;;;;;;14.20;12.80;;;18.40;1.00;;;;;;5031141;28;20024;-85
2021/06/10 01:48:15;;;;;;;16.25;12.73;;;18.30;1.00;;;;;;5031185;28;20378;-86
2021/06/10 01:50:41;;;;;;;13.77;12.35;;;18.30;1.00;;;;;;5031345;28;20030;-86
2021/06/10 01:53:14;;;;;;;14.40;13.00;;;18.20;1.00;;;;;;5031308;28;20025;-85
2021/06/10 01:55:40;;;;;;;16.05;13.10;;;18.30;1.00;;;;;;5031496;28;20036;-85
2021/06/10 01:58:08;;;;;;;14.45;12.95;;;18.20;1.00;;;;;;5030943;28;20025;-85
2021/06/10 02:00:35;;;;;;;14.00;12.60;;;18.10;1.00;;;;;;5030242;28;20080;-85
2021/06/10 02:03:02;;;;;;;14.57;12.60;;;18.10;1.00;;;;;;5031106;28;20501;-86
2021/06/10 02:05:29;;;;;;;14.02;12.68;;;18.10;1.00;;;;;;5031255;28;20037;-84
2021/06/10 02:07:55;;;;;;;13.43;12.13;;;18.20;1.00;;;;;;5031210;28;20033;-85
2021/06/10 02:10:25;;;;;;;14.90;13.32;;;18.20;1.00;;;;;;5030976;28;20156;-86
2021/06/10 02:12:52;;;;;;;14.25;12.73;;;18.20;1.00;;;;;;5031235;28;20025;-85
2021/06/10 02:15:19;;;;;;;14.60;12.90;;;18.20;1.00;;;;;;5031180;28;20444;-85
2021/06/10 02:17:48;;;;;;;14.95;13.15;;;18.00;1.00;;;;;;5030994;28;20025;-86
2021/06/10 02:20:17;;;;;;;14.18;12.68;;;18.10;1.00;;;;;;5013382;28;20022;-85
2021/06/10 02:22:43;;;;;;;13.52;12.23;;;18.20;1.00;;;;;;5026926;28;20033;-84
2021/06/10 02:25:09;;;;;;;14.43;12.68;;;18.10;1.00;;;;;;5030976;28;20116;-85
2021/06/10 02:27:35;;;;;;;14.13;12.50;;;18.00;1.00;;;;;;5030861;28;20092;-85
2021/06/10 02:30:01;;;;;;;14.13;12.00;;;18.10;1.00;;;;;;5030638;28;20526;-85
2021/06/10 02:32:28;;;;;;;13.57;12.32;;;18.00;1.00;;;;;;5030695;28;20029;-85
2021/06/10 02:34:54;;;;;;;14.57;13.07;;;17.90;1.00;;;;;;5035070;28;20025;-85
2021/06/10 02:37:24;;;;;;;13.90;12.50;;;18.00;1.00;;;;;;5035008;28;20509;-86
2021/06/10 02:39:53;;;;;;;13.93;12.52;;;18.00;1.00;;;;;;5035065;28;20136;-85
2021/06/10 02:42:19;;;;;;;14.40;12.88;;;17.90;1.00;;;;;;5034900;28;20486;-85
2021/06/10 02:44:49;;;;;;;14.80;13.30;;;17.80;1.00;;;;;;5034603;28;20033;-85
2021/06/10 02:47:16;;;;;;;15.27;12.63;;;17.80;1.00;;;;;;5018636;28;20363;-85
2021/06/10 02:49:45;;;;;;;15.20;13.60;;;17.90;1.00;;;;;;5030638;28;20030;-85
2021/06/10 02:52:13;;;;;;;14.88;13.30;;;18.10;1.00;;;;;;5034033;28;20200;-84
2021/06/10 02:54:38;;;;;;;15.35;13.20;;;17.90;1.00;;;;;;5034580;28;20021;-85
2021/06/10 02:57:07;;;;;;;17.17;13.43;;;17.90;1.00;;;;;;5034260;28;20056;-85
2021/06/10 02:59:36;;;;;;;13.95;12.55;;;17.90;1.00;;;;;;5034225;28;20033;-85
2021/06/10 03:02:02;;;;;;;14.95;13.30;;;18.00;1.00;;;;;;5034863;28;20021;-85
2021/06/10 03:04:29;;;;;;;14.30;12.85;;;18.20;1.00;;;;;;5034971;28;20112;-85
2021/06/10 03:06:55;;;;;;;14.60;13.20;;;18.20;1.00;;;;;;5033629;28;20029;-85
2021/06/10 03:09:22;;;;;;;15.02;13.38;;;18.40;1.00;;;;;;5034058;28;20033;-85
2021/06/10 03:11:48;;;;;;;13.70;12.27;;;18.40;1.00;;;;;;5033890;28;20037;-85
2021/06/10 03:14:16;;;;;;;13.95;12.60;;;18.40;1.00;;;;;;5018507;28;20041;-85
2021/06/10 03:16:44;;;;;;;14.20;12.88;;;18.40;1.00;;;;;;5030085;28;20397;-85
2021/06/10 03:19:10;;;;;;;15.68;12.77;;;18.50;1.00;;;;;;5033869;28;20452;-85
2021/06/10 03:21:37;;;;;;;14.68;12.27;;;18.50;1.00;;;;;;5033261;28;20474;-85
2021/06/10 03:24:03;;;;;;;15.30;13.80;;;18.50;1.00;;;;;;5033873;28;20501;-85
2021/06/10 03:26:30;;;;;;;14.60;12.88;;;18.50;1.00;;;;;;5033762;28;20021;-85
2021/06/10 03:28:56;;;;;;;15.27;12.68;;;18.40;1.00;;;;;;5034437;28;20083;-85
2021/06/10 03:31:22;;;;;;;13.75;12.13;;;18.50;1.00;;;;;;5033852;28;20091;-85
2021/06/10 03:33:53;;;;;;;14.23;12.70;;;18.40;1.00;;;;;;5033397;28;20068;-85
2021/06/10 03:36:20;;;;;;;14.20;12.75;;;18.40;1.00;;;;;;5032894;28;20030;-85
2021/06/10 03:38:46;;;;;;;14.88;13.27;;;18.40;1.00;;;;;;5033405;28;20017;-84
2021/06/10 03:41:14;;;;;;;15.25;13.75;;;18.30;1.00;;;;;;5033392;28;20026;-85
2021/06/10 03:43:41;;;;;;;18.13;14.13;;;18.50;1.00;;;;;;5034016;28;20120;-85
2021/06/10 03:46:08;;;;;;;14.93;13.43;;;18.40;1.00;;;;;;5032390;28;20410;-85
2021/06/10 03:48:34;;;;;;;15.65;13.32;;;18.50;1.00;;;;;;5033076;28;20079;-84
2021/06/10 03:51:00;;;;;;;15.55;12.85;;;18.60;1.00;;;;;;5032793;28;20041;-85
2021/06/10 03:53:25;;;;;;;22.00;13.68;;;18.50;1.00;;;;;;5033929;28;20401;-85
2021/06/10 03:55:51;;;;;;;14.73;13.07;;;18.50;1.00;;;;;;5033471;28;20029;-85
2021/06/10 03:58:21;;;;;;;14.68;12.38;;;18.50;1.00;;;;;;5033343;28;20064;-85
2021/06/10 04:00:47;;;;;;;13.65;11.95;;;18.40;1.00;;;;;;5032907;28;20033;-85
2021/06/10 04:03:12;;;;;;;14.90;12.68;;;18.60;1.00;;;;;;5033008;28;20072;-85
2021/06/10 04:05:38;;;;;;;14.23;12.32;;;18.50;1.00;;;;;;5033067;28;20026;-85
2021/06/10 04:08:04;;;;;;;14.02;11.90;;;18.40;1.00;;;;;;5032584;28;20481;-85
2021/06/10 04:10:29;;;;;;;21.13;13.93;;;18.40;1.00;;;;;;5033180;28;20061;-85
2021/06/10 04:12:55;;;;;;;16.55;12.68;;;18.40;1.00;;;;;;5032784;28;20067;-85
2021/06/10 04:15:21;;;;;;;14.32;12.82;;;18.40;1.00;;;;;;5032607;28;20505;-85
2021/06/10 04:17:46;;;;;;;13.88;12.48;;;18.50;1.00;;;;;;5033141;28;20037;-85
2021/06/10 04:20:13;;;;;;;16.02;13.05;;;18.50;1.00;;;;;;5032208;28;20041;-85
2021/06/10 04:22:39;;;;;;;14.52;12.73;;;18.60;1.00;;;;;;5032957;28;20506;-85
2021/06/10 04:25:08;;;;;;;13.82;12.43;;;18.50;1.00;;;;;;5032710;28;20026;-85
2021/06/10 04:27:33;;;;;;;15.20;12.60;;;18.50;1.00;;;;;;5032683;28;20025;-85
2021/06/10 04:29:59;;;;;;;14.18;12.48;;;18.50;1.00;;;;;;5032218;28;20087;-85
2021/06/10 04:32:25;;;;;;;13.85;11.68;;;18.60;1.00;;;;;;5032140;28;20094;-84
2021/06/10 04:34:50;;;;;;;16.52;13.48;;;18.80;1.00;;;;;;5032059;28;20025;-84
2021/06/10 04:37:18;;;;;;;16.73;12.70;;;18.70;1.00;;;;;;5032993;28;20494;-85
2021/06/10 04:39:43;;;;;;;14.13;12.55;;;18.60;1.00;;;;;;5032537;28;20018;-85
2021/06/10 04:42:09;;;;;;;16.23;12.35;;;18.70;1.00;;;;;;5032372;28;20415;-84
2021/06/10 04:44:35;;;;;;;14.20;12.65;;;18.80;1.00;;;;;;5031998;28;20027;-85
2021/06/10 04:47:02;;;;;;;15.73;12.73;;;18.90;1.00;;;;;;5032187;28;20030;-85
2021/06/10 04:49:28;;;;;;;14.55;12.60;;;19.10;1.00;;;;;;5032395;28;20072;-85
2021/06/10 04:51:53;;;;;;;13.73;12.18;;;19.10;1.00;;;;;;5014321;28;20033;-85
2021/06/10 04:54:19;;;;;;;14.85;11.82;;;19.00;1.00;;;;;;5032306;28;20036;-85
2021/06/10 04:56:44;;;;;;;13.23;11.82;;;19.00;1.00;;;;;;5031576;28;20037;-85
2021/06/10 04:59:10;;;;;;;13.95;12.52;;;19.10;1.00;;;;;;5032040;28;20397;-84
2021/06/10 05:01:36;;;;;;;14.52;12.50;;;19.00;1.00;;;;;;5032666;28;20457;-84
2021/06/10 05:04:01;;;;;;;13.40;12.10;;;19.20;1.00;;;;;;5031316;28;20540;-85
2021/06/10 05:06:27;;;;;;;13.90;12.50;;;19.30;1.00;;;;;;5032125;28;20028;-85
2021/06/10 05:08:53;;;;;;;13.27;11.07;;;19.40;1.00;;;;;;5031689;28;20457;-85
2021/06/10 05:11:18;;;;;;;14.90;12.52;;;19.40;1.00;;;;;;5031699;28;20041;-84
2021/06/10 05:13:44;;;;;;;16.27;12.18;;;19.40;1.00;;;;;;5032299;28;20022;-85
2021/06/10 05:16:09;;;;;;;13.30;11.90;;;19.40;1.00;;;;;;5031601;28;20052;-85
2021/06/10 05:18:35;;;;;;;13.43;11.98;;;19.60;1.00;;;;;;5031023;28;20021;-85
2021/06/10 05:21:01;;;;;;;13.73;12.32;;;19.70;1.00;;;;;;5031567;28;20072;-84
2021/06/10 05:23:26;;;;;;;13.48;12.02;;;19.70;1.00;;;;;;5013636;28;20105;-84
2021/06/10 05:25:52;;;;;;;13.68;12.32;;;19.60;1.00;;;;;;5031679;28;20466;-84
2021/06/10 05:28:18;;;;;;;13.50;12.13;;;19.50;1.00;;;;;;5031567;28;20032;-84
2021/06/10 05:30:43;;;;;;;13.02;11.68;;;19.50;1.00;;;;;;5031434;28;20056;-85
2021/06/10 05:33:09;;;;;;;16.40;13.35;;;19.60;1.00;;;;;;5031011;28;20026;-84
2021/06/10 05:35:34;;;;;;;15.88;12.98;;;19.60;1.00;;;;;;5031246;28;20037;-84
2021/06/10 05:38:00;;;;;;;15.40;12.73;;;19.70;1.00;;;;;;5031794;28;20076;-85
2021/06/10 05:40:26;;;;;;;16.17;13.00;;;19.70;1.00;;;;;;5031624;28;20187;-84
2021/06/10 05:42:51;;;;;;;15.32;12.80;;;19.60;1.00;;;;;;5031076;28;20493;-84
2021/06/10 05:45:17;;;;;;;16.98;13.10;;;19.40;1.00;;;;;;5013299;28;20452;-85
2021/06/10 05:47:43;;;;;;;17.83;13.07;;;19.50;1.00;;;;;;5030623;28;20555;-85
2021/06/10 05:50:09;;;;;;;15.38;12.98;;;19.60;1.00;;;;;;5030866;28;20132;-85
2021/06/10 05:52:35;;;;;;;17.58;13.60;;;19.70;1.00;;;;;;5031984;28;20029;-86
2021/06/10 05:55:00;;;;;;;17.95;15.20;;;19.80;1.00;;;;;;5030849;28;20037;-86
2021/06/10 05:57:26;;;;;;;17.55;15.73;;;19.60;1.00;;;;;;5031047;28;20025;-88
2021/06/10 05:59:52;;;;;;;18.65;16.65;;;19.60;1.00;;;;;;5008485;28;20029;-86
2021/06/10 06:02:18;;;;;;;18.08;15.80;;;19.60;1.00;;;;;;5015169;28;20087;-86
2021/06/10 06:04:44;;;;;;;17.05;15.32;;;19.40;1.00;;;;;;5031610;28;20508;-85
2021/06/10 06:07:10;;;;;;;15.60;14.02;;;19.60;1.00;;;;;;5029829;28;20394;-85
2021/06/10 06:09:36;;;;;;;17.08;15.40;;;19.60;1.00;;;;;;5030127;28;20032;-84
2021/06/10 06:12:11;;;;;;;17.33;15.20;;;19.70;1.00;;;;;;5030834;28;20060;-85
2021/06/10 06:14:38;;;;;;;18.55;16.27;;;19.60;1.00;;;;;;5029962;28;20025;-85
2021/06/10 06:17:05;;;;;;;18.13;15.57;;;19.60;1.00;;;;;;5031168;28;20030;-85
2021/06/10 06:19:32;;;;;;;16.30;14.65;;;19.90;1.00;;;;;;5031269;28;20033;-85
2021/06/10 06:21:58;;;;;;;16.83;13.98;;;20.20;1.00;;;;;;5030147;28;20072;-85
2021/06/10 06:24:24;;;;;;;16.85;15.18;;;20.30;1.00;;;;;;5030684;28;20029;-85
2021/06/10 06:26:49;;;;;;;17.65;14.85;;;20.40;1.00;;;;;;5030838;28;20509;-85
2021/06/10 06:29:15;;;;;;;19.67;16.63;;;20.10;1.00;;;;;;5030182;28;20039;-85
2021/06/10 06:31:41;;;;;;;17.92;16.13;;;20.00;1.00;;;;;;5031336;28;20067;-89
2021/06/10 06:34:07;;;;;;;16.67;14.93;;;19.90;1.00;;;;;;5030294;28;20026;-87
2021/06/10 06:36:33;;;;;;;16.83;15.32;;;20.00;1.00;;;;;;5030515;28;20036;-91
2021/06/10 06:38:58;;;;;;;19.90;17.77;;;20.10;1.00;;;;;;5031430;28;20026;-85
2021/06/10 06:41:24;;;;;;;18.25;16.38;;;20.10;1.00;;;;;;5030514;28;20039;-85
2021/06/10 06:43:50;;;;;;;19.27;17.38;;;19.90;1.00;;;;;;5030237;28;20049;-85
2021/06/10 06:46:16;;;;;;;18.92;17.02;;;20.10;1.00;;;;;;5030597;28;20556;-85
2021/06/10 06:48:42;;;;;;;19.17;17.30;;;20.30;1.00;;;;;;5030250;28;20124;-85
2021/06/10 06:51:09;;;;;;;19.90;17.42;;;20.60;1.00;;;;;;5030620;28;20115;-86
2021/06/10 06:53:35;;;;;;;19.10;17.20;;;20.70;1.00;;;;;;5030400;28;20051;-85
2021/06/10 06:56:02;;;;;;;18.75;16.85;;;20.80;1.00;;;;;;5012483;28;20044;-85
2021/06/10 06:58:28;;;;;;;18.17;16.27;;;20.60;1.00;;;;;;5028153;28;20020;-85
2021/06/10 07:00:54;;;;;;;19.20;17.35;;;20.80;1.00;;;;;;5030160;28;20549;-87
2021/06/10 07:03:21;;;;;;;16.67;15.07;;;20.60;1.00;;;;;;5030960;28;20017;-86
2021/06/10 07:05:47;;;;;;;16.80;15.00;;;20.60;1.00;;;;;;5030419;28;20088;-85
2021/06/10 07:08:13;;;;;;;19.35;16.45;;;20.60;1.00;;;;;;5030319;28;20022;-85
2021/06/10 07:10:39;;;;;;;17.25;15.48;;;20.80;1.00;;;;;;5030868;28;20048;-85
2021/06/10 07:13:04;;;;;;;17.90;16.08;;;21.10;1.00;;;;;;5030172;28;20429;-85
2021/06/10 07:15:30;;;;;;;18.08;16.20;;;21.40;1.00;;;;;;5029965;28;20032;-86
2021/06/10 07:17:56;;;;;;;18.50;16.30;;;21.30;1.00;;;;;;5030302;28;20083;-85
2021/06/10 07:20:22;;;;;;;18.27;16.23;;;21.30;1.00;;;;;;5032767;28;20029;-86
2021/06/10 07:22:48;;;;;;;17.17;15.45;;;21.20;1.00;;;;;;5034222;28;20556;-85
2021/06/10 07:25:14;;;;;;;16.63;15.00;;;21.20;1.00;;;;;;5033912;28;20029;-85
2021/06/10 07:27:41;;;;;;;16.92;15.32;;;21.40;1.00;;;;;;5033278;28;20513;-86
2021/06/10 07:30:07;;;;;;;19.88;18.08;;;21.50;1.00;;;;;;5033483;28;20121;-85
2021/06/10 07:32:33;;;;;;;21.10;19.00;;;21.70;1.00;;;;;;5033588;28;20029;-85
2021/06/10 07:34:59;;;;;;;20.80;18.70;;;21.70;1.00;;;;;;5033652;28;20513;-85
2021/06/10 07:37:25;;;;;;;20.08;18.17;;;21.90;1.00;;;;;;5034052;28;20040;-86
2021/06/10 07:39:51;;;;;;;19.52;17.73;;;22.20;99.90;;;;;;5033665;28;20025;-86
2021/06/10 07:42:18;;;;;;;20.00;18.02;;;22.40;99.90;;;;;;5032817;28;20112;-85
2021/06/10 07:44:43;;;;;;;19.45;17.65;;;22.50;99.90;;;;;;5033247;28;20025;-86
2021/06/10 07:47:09;;;;;;;19.23;17.30;;;22.30;99.90;;;;;;5033243;28;20057;-85
2021/06/10 07:49:35;;;;;;;20.50;18.50;;;22.30;99.90;;;;;;5033935;28;20040;-86
2021/06/10 07:52:01;;;;;;;18.10;16.50;;;22.40;99.90;;;;;;5033703;28;20040;-86
2021/06/10 07:54:27;;;;;;;19.10;17.30;;;22.80;99.90;;;;;;5033086;28;20378;-86
2021/06/10 07:56:53;;;;;;;17.95;15.95;;;23.00;99.90;;;;;;5032633;28;20026;-86
2021/06/10 07:59:25;;;;;;;18.67;16.88;;;23.40;99.90;;;;;;5032826;28;20573;-86
2021/06/10 08:01:51;;;;;;;17.70;15.98;;;23.60;99.90;;;;;;5015728;28;20017;-85
2021/06/10 08:04:17;;;;;;;17.90;16.10;;;23.60;99.90;;;;;;5014878;28;20084;-86
2021/06/10 08:06:43;;;;;;;16.90;15.35;;;23.30;99.90;;;;;;5032732;28;20026;-86
2021/06/10 08:09:09;;;;;;;16.98;15.38;;;23.70;99.90;;;;;;5032679;28;20061;-86
2021/06/10 08:11:35;;;;;;;16.50;14.98;;;23.90;99.90;;;;;;5014895;28;20128;-86
2021/06/10 08:14:01;;;;;;;18.65;16.80;;;24.20;99.90;;;;;;5032540;28;20030;-85
2021/06/10 08:16:26;;;;;;;16.30;14.80;;;24.30;99.90;;;;;;5031509;28;20496;-86
2021/06/10 08:18:52;;;;;;;17.05;15.30;;;24.10;99.90;;;;;;5032404;28;20552;-85
2021/06/10 08:21:18;;;;;;;17.45;15.80;;;24.00;99.90;;;;;;5032705;28;20056;-85
2021/06/10 08:23:43;;;;;;;19.40;17.38;;;24.00;99.90;;;;;;5032677;28;20030;-85
2021/06/10 08:26:09;;;;;;;18.05;16.15;;;23.70;99.90;;;;;;5032083;28;22335;-86
2021/06/10 08:28:35;;;;;;;18.55;16.85;;;23.30;99.90;;;;;;5033004;28;20028;-86
2021/06/10 08:31:01;;;;;;;19.92;18.00;;;23.30;99.90;;;;;;5031568;28;20052;-85
2021/06/10 08:33:27;;;;;;;19.10;17.23;;;23.10;99.90;;;;;;5032648;28;20428;-86
2021/06/10 08:35:53;;;;;;;20.08;18.17;;;23.50;99.90;;;;;;5032486;28;20044;-86
2021/06/10 08:38:19;;;;;;;19.60;17.70;;;23.40;99.90;;;;;;5032396;28;20033;-86
2021/06/10 08:40:45;;;;;;;18.45;16.67;;;23.40;99.90;;;;;;5032318;28;20037;-86
2021/06/10 08:43:11;;;;;;;17.92;16.23;;;23.40;99.90;;;;;;5032364;28;20037;-86
2021/06/10 08:45:41;;;;;;;18.35;16.63;;;23.70;99.90;;;;;;5032303;28;20036;-85
2021/06/10 08:48:07;;;;;;;17.88;16.25;;;23.60;99.90;;;;;;5031888;28;20060;-85
2021/06/10 08:50:33;;;;;;;18.30;16.70;;;23.70;99.90;;;;;;5032347;28;20503;-86
2021/06/10 08:53:00;;;;;;;19.08;17.38;;;23.70;99.90;;;;;;5032166;28;20032;-86
2021/06/10 08:55:27;;;;;;;19.27;17.42;;;23.30;99.90;;;;;;5031984;28;20010;-86
2021/06/10 08:57:53;;;;;;;19.30;17.40;;;23.20;99.90;;;;;;5032018;28;20041;-86
2021/06/10 09:00:21;;;;;;;19.00;17.27;;;23.20;99.90;;;;;;5032083;28;20017;-86
2021/06/10 09:02:55;;;;;;;19.20;17.50;;;23.00;99.90;;;;;;5031778;28;20136;-85
2021/06/10 09:05:21;;;;;;;19.55;17.65;;;23.10;99.90;;;;;;5016689;28;20032;-86
2021/06/10 09:07:55;;;;;;;20.67;18.55;;;23.20;99.90;;;;;;5032195;28;20437;-86
2021/06/10 09:10:30;;;;;;;19.00;17.05;;;23.20;99.90;;;;;;5030774;28;20041;-86
2021/06/10 09:13:01;;;;;;;20.42;18.52;;;23.20;99.90;;;;;;5031862;28;20051;-86
2021/06/10 09:15:29;;;;;;;19.77;17.85;;;23.20;99.90;;;;;;5031572;28;20490;-85
2021/06/10 09:18:00;;;;;;;19.35;17.38;;;23.40;99.90;;;;;;5031856;28;20100;-86
2021/06/10 09:20:28;;;;;;;19.23;17.27;;;23.30;99.90;;;;;;5031676;28;20033;-86
2021/06/10 09:23:23;;;;;;;19.20;17.15;;;23.10;99.90;;;;;;5031420;28;20112;-85
2021/06/10 09:26:02;;;;;;;18.67;16.88;;;23.30;99.90;;;;;;5031806;28;20030;-86
2021/06/10 09:28:39;;;;;;;18.92;17.15;;;23.40;99.90;;;;;;5029842;28;20125;-86
2021/06/10 09:31:05;;;;;;;19.33;17.50;;;23.70;99.90;;;;;;5031292;28;20041;-86
2021/06/10 09:33:39;;;;;;;17.52;15.95;;;23.70;99.90;;;;;;5031405;28;20235;-85
2021/06/10 09:36:05;;;;;;;18.17;16.40;;;24.10;99.90;;;;;;5030991;28;20025;-86
2021/06/10 09:38:31;;;;;;;19.10;17.30;;;24.40;99.90;;;;;;5030775;28;20122;-86
2021/06/10 09:41:06;;;;;;;18.48;16.75;;;24.50;99.90;;;;;;5031334;28;20099;-86
2021/06/10 09:43:45;;;;;;;18.25;16.55;;;24.30;99.90;;;;;;5029615;28;20075;-86
2021/06/10 09:46:11;;;;;;;18.42;16.48;;;24.00;99.90;;;;;;5030937;28;20083;-86
2021/06/10 09:48:37;;;;;;;20.42;18.63;;;24.10;99.90;;;;;;5031168;28;20040;-86
2021/06/10 09:51:02;;;;;;;19.02;17.33;;;24.10;99.90;;;;;;5030982;28;20063;-86
2021/06/10 09:53:32;;;;;;;17.60;16.00;;;24.10;99.90;;;;;;5031441;28;20363;-86
2021/06/10 09:56:05;;;;;;;17.98;16.38;;;24.30;99.90;;;;;;5030919;28;20490;-85
2021/06/10 09:58:35;;;;;;;19.92;18.02;;;24.40;99.90;;;;;;5030051;28;20424;-86
2021/06/10 10:01:07;;;;;;;20.98;18.88;;;24.30;99.90;;;;;;5030821;28;20049;-85
2021/06/10 10:03:41;;;;;;;20.90;18.80;;;24.20;99.90;;;;;;5031153;28;20550;-86
2021/06/10 10:06:43;;;;;;;18.52;16.80;;;24.00;99.90;;;;;;5030560;28;20120;-86
2021/06/10 10:09:04;;;;;;;18.67;16.75;;;24.10;99.90;;;;;;5028684;28;20025;-86
2021/06/10 10:11:33;;;;;;;20.67;18.67;;;24.30;99.90;;;;;;5031009;28;20033;-86
2021/06/10 10:14:00;;;;;;;19.27;17.38;;;24.50;99.90;;;;;;5030873;28;20104;-86
2021/06/10 10:16:28;;;;;;;19.15;17.20;;;24.70;99.90;;;;;;5031575;28;20037;-86
2021/06/10 10:18:55;;;;;;;18.30;16.60;;;25.00;99.90;;;;;;5030377;28;20013;-86
2021/06/10 10:21:28;;;;;;;18.55;16.92;;;25.10;99.90;;;;;;5030235;28;20079;-85
2021/06/10 10:24:00;;;;;;;20.80;18.90;;;24.90;99.90;;;;;;5030596;28;20022;-86
2021/06/10 10:26:26;;;;;;;20.55;18.65;;;24.80;99.90;;;;;;5029755;28;20035;-86
2021/06/10 10:28:52;;;;;;;21.73;19.80;;;24.70;99.90;;;;;;5030842;28;20385;-85
2021/06/10 10:31:18;;;;;;;21.50;19.48;;;24.80;99.90;;;;;;5030720;28;20040;-86
2021/06/10 10:33:45;;;;;;;21.75;19.65;;;24.80;99.90;;;;;;5013053;28;20026;-86
2021/06/10 10:36:38;;;;;;;20.30;18.40;;;24.90;99.90;;;;;;5030243;28;20056;-86
2021/06/10 10:39:09;;;;;;;20.90;19.00;;;25.30;99.90;;;;;;5013463;28;20468;-86
2021/06/10 10:41:53;;;;;;;21.63;19.52;;;25.20;99.90;;;;;;5030667;28;20501;-86
2021/06/10 10:44:25;;;;;;;21.15;19.25;;;25.10;99.90;;;;;;5015603;28;20116;-86
2021/06/10 10:47:00;;;;;;;21.60;19.58;;;25.10;99.90;;;;;;5030649;28;20040;-86
2021/06/10 10:49:29;;;;;;;20.92;18.92;;;25.40;99.90;;;;;;5029128;28;20026;-86
2021/06/10 10:52:15;;;;;;;21.67;19.58;;;25.60;99.90;;;;;;5030930;28;20489;-86
2021/06/10 10:54:43;;;;;;;18.73;17.00;;;25.70;99.90;;;;;;5031603;28;20024;-86
2021/06/10 10:57:30;;;;;;;19.98;18.08;;;25.80;99.90;;;;;;5034555;28;20038;-86
2021/06/10 10:59:56;;;;;;;18.65;16.85;;;25.50;99.90;;;;;;5033920;28;20052;-86
2021/06/10 11:02:23;;;;;;;19.50;17.70;;;25.80;99.90;;;;;;5034225;28;20034;-86
2021/06/10 11:05:00;;;;;;;18.42;16.65;;;26.00;99.90;;;;;;5033734;28;20033;-86
2021/06/10 11:07:35;;;;;;;17.25;15.65;;;26.10;99.90;;;;;;5033256;28;20037;-86
2021/06/10 11:10:07;;;;;;;18.50;16.85;;;25.80;99.90;;;;;;5034505;28;20431;-86
2021/06/10 11:12:44;;;;;;;18.63;16.75;;;25.70;99.90;;;;;;5034019;28;20478;-85
2021/06/10 11:15:16;;;;;;;17.08;15.50;;;25.60;99.90;;;;;;5033607;28;20013;-86
2021/06/10 11:17:46;;;;;;;17.55;15.88;;;26.00;99.90;;;;;;5033723;28;20037;-87
2021/06/10 11:20:15;;;;;;;17.23;15.50;;;26.30;99.90;;;;;;5033427;28;20067;-87
2021/06/10 11:22:48;;;;;;;16.27;14.80;;;26.60;99.90;;;;;;5034816;28;20055;-86
2021/06/10 11:25:16;;;;;;;15.35;13.88;;;26.50;99.90;;;;;;5033797;28;20033;-86
2021/06/10 11:27:44;;;;;;;17.75;16.08;;;26.70;99.90;;;;;;5033540;28;20033;-86
2021/06/10 11:30:22;;;;;;;17.63;16.02;;;27.20;99.90;;;;;;5033509;28;20041;-86
2021/06/10 11:33:06;;;;;;;18.17;16.40;;;27.30;99.90;;;;;;5034176;28;20033;-86
2021/06/10 11:35:32;;;;;;;15.60;13.98;;;27.50;99.90;;;;;;5019640;28;20033;-86
2021/06/10 11:38:00;;;;;;;18.73;17.02;;;27.80;99.90;;;;;;5033450;28;20026;-86
2021/06/10 11:40:26;;;;;;;14.85;13.55;;;28.00;99.90;;;;;;5033805;28;20080;-86
2021/06/10 11:42:52;;;;;;;13.55;12.32;;;28.00;99.90;;;;;;5033348;28;20077;-86
2021/06/10 11:45:26;;;;;;;12.40;11.30;;;28.40;99.90;;;;;;5033027;28;20112;-87
2021/06/10 11:47:53;;;;;;;13.98;12.77;;;28.30;99.90;;;;;;5033864;28;20053;-86
2021/06/10 11:50:24;;;;;;;12.35;11.07;;;28.60;99.90;;;;;;5032808;28;20026;-87
2021/06/10 11:52:50;;;;;;;13.88;12.65;;;28.70;99.90;;;;;;5015565;28;20099;-86
2021/06/10 11:55:16;;;;;;;14.32;12.85;;;28.70;99.90;;;;;;5033557;28;20364;-86
2021/06/10 11:57:42;;;;;;;14.32;12.93;;;28.90;99.90;;;;;;5033741;28;20036;-86
2021/06/10 12:00:10;;;;;;;12.68;11.50;;;28.90;99.90;;;;;;5031538;28;20031;-86
2021/06/10 12:02:37;;;;;;;12.77;11.57;;;29.40;99.90;;;;;;5032637;28;20078;-86
2021/06/10 12:05:11;;;;;;;13.75;12.57;;;29.40;99.90;;;;;;5032994;28;20544;-86
2021/06/10 12:07:37;;;;;;;16.83;13.20;;;31.20;99.90;;;;;;5032957;28;20034;-86
2021/06/10 12:10:09;;;;;;;15.10;13.70;;;33.20;99.90;;;;;;5032497;28;20055;-86
2021/06/10 12:12:44;;;;;;;14.02;12.73;;;34.20;99.90;;;;;;5033157;28;20017;-86
2021/06/10 12:15:29;;;;;;;13.43;12.15;;;32.50;99.90;;;;;;5032999;28;20414;-86
2021/06/10 12:18:04;;;;;;;14.55;13.32;;;35.10;99.90;;;;;;5032211;28;20036;-86
2021/06/10 12:20:35;;;;;;;12.63;11.18;;;35.20;99.90;;;;;;5032880;28;20220;-86
2021/06/10 12:23:09;;;;;;;13.63;12.32;;;35.80;99.90;;;;;;5032641;28;20046;-86
2021/06/10 12:25:35;;;;;;;13.35;12.15;;;34.80;99.90;;;;;;5032592;28;20493;-86
2021/06/10 12:28:02;;;;;;;12.88;11.73;;;37.00;99.90;;;;;;5032231;28;20069;-87
2021/06/10 12:30:34;;;;;;;11.30;10.23;;;37.60;99.90;;;;;;5032856;28;20048;-86
2021/06/10 12:33:20;;;;;;;12.25;10.88;;;38.30;99.90;;;;;;5031445;28;20033;-86
2021/06/10 12:35:57;;;;;;;11.05;10.15;;;39.20;99.90;;;;;;5032288;28;20544;-86
2021/06/10 12:38:28;;;;;;;10.15;9.35;;;39.10;99.90;;;;;;5017709;28;20104;-87